Wanatah, Indiana
Current Conditions -  °F | °C
As of 9:56 AM on Sunday 23 Nov 2014 (Local Time) from KVPZ Reporting Station
Overcast Overcast  
Wind Chill:   Ceiling: 1900
Heat Index:   Visibility: 10mi
Dew Point:   Wind: 7mph
Humidity: 83%   Direction: 160°SSE
Pressure: 29.78"   Gusts: NA
Location:  41.43°N, 86.9°W
Report Text: KVPZ 231556Z AUTO 16006KT 10SM BKN019 OVC120 09/07 A2978 RMK AO2 RAB01E11 SLP085 P0000 T00940067 TSNO
Loading
Personal Weather Stations






























Interactive Weather Map New forecast layout! Learn more

10-Day Weather Forecast

Advertisements
Track Severe Weather on mobile